Time;durP1;ratioP1;P1;durP2;ratioP2;P2;SDS_P1;SDS_P2;PMS_P1;PMS_P2;Temp;Humidity;BMP_temperature;BMP_pressure;BME280_temperature;BME280_humidity;BME280_pressure;Samples;Min_cycle;Max_cycle;Signal;HPM_P1;HPM_P2
2023/11/18 00:00:56;;;;;;;6.93;6.15;;;6.40;1.00;;;;;;5078417;28;20230;-73
2023/11/18 00:03:23;;;;;;;7.45;6.72;;;6.40;1.00;;;;;;5088325;28;20378;-71
2023/11/18 00:05:50;;;;;;;7.88;7.13;;;6.40;1.00;;;;;;5087675;28;20334;-75
2023/11/18 00:08:17;;;;;;;7.72;6.28;;;6.30;1.00;;;;;;5071013;28;20623;-79
2023/11/18 00:10:44;;;;;;;8.68;6.90;;;6.40;1.00;;;;;;5077744;28;20250;-79
2023/11/18 00:13:12;;;;;;;7.85;6.88;;;6.40;1.00;;;;;;5078496;28;20229;-79
2023/11/18 00:15:42;;;;;;;7.95;6.60;;;6.40;1.00;;;;;;5079128;28;20231;-78
2023/11/18 00:18:09;;;;;;;8.15;7.35;;;6.30;1.00;;;;;;5088616;28;20237;-78
2023/11/18 00:20:36;;;;;;;7.95;6.78;;;6.30;1.00;;;;;;5084161;28;20241;-78
2023/11/18 00:23:04;;;;;;;7.18;6.47;;;6.30;1.00;;;;;;5063349;28;20228;-77
2023/11/18 00:25:31;;;;;;;8.80;6.55;;;6.30;1.00;;;;;;5069839;28;20318;-78
2023/11/18 00:27:58;;;;;;;7.03;6.43;;;6.20;1.00;;;;;;5088257;28;20239;-79
2023/11/18 00:30:28;;;;;;;7.20;5.90;;;6.20;1.00;;;;;;5078163;28;20336;-77
2023/11/18 00:32:55;;;;;;;6.72;6.05;;;6.20;1.00;;;;;;5090343;28;20244;-77
2023/11/18 00:35:22;;;;;;;8.27;6.20;;;6.20;1.00;;;;;;5092310;28;20293;-78
2023/11/18 00:37:49;;;;;;;6.55;5.75;;;6.20;1.00;;;;;;5083571;28;20237;-78
2023/11/18 00:40:17;;;;;;;7.38;6.65;;;6.10;1.00;;;;;;5071558;28;20296;-76
2023/11/18 00:42:45;;;;;;;7.55;6.85;;;6.10;1.00;;;;;;5074904;28;20300;-78
2023/11/18 00:45:12;;;;;;;7.80;7.00;;;6.20;1.00;;;;;;5080513;28;20237;-78
2023/11/18 00:47:42;;;;;;;7.75;7.00;;;6.20;1.00;;;;;;5070667;28;20238;-79
2023/11/18 00:50:10;;;;;;;6.72;6.10;;;6.20;1.00;;;;;;5071674;28;20239;-78
2023/11/18 00:52:38;;;;;;;9.23;6.75;;;6.20;1.00;;;;;;5080232;28;21238;-79
2023/11/18 00:55:10;;;;;;;8.05;7.28;;;6.20;1.00;;;;;;5087451;28;20241;-78
2023/11/18 00:57:39;;;;;;;7.43;6.50;;;6.20;1.00;;;;;;5077319;28;20238;-75
2023/11/18 01:00:07;;;;;;;6.90;5.68;;;6.20;1.00;;;;;;5079869;27;20284;-77
2023/11/18 01:02:34;;;;;;;7.25;6.55;;;6.20;1.00;;;;;;5081978;28;20243;-78
2023/11/18 01:05:07;;;;;;;7.32;6.63;;;6.10;1.00;;;;;;5091585;27;20264;-77
2023/11/18 01:07:34;;;;;;;7.68;6.88;;;6.20;1.00;;;;;;5074457;28;20238;-76
2023/11/18 01:10:01;;;;;;;9.05;6.88;;;6.20;1.00;;;;;;5069797;28;20245;-78
2023/11/18 01:12:28;;;;;;;8.18;7.38;;;6.10;1.00;;;;;;5078223;28;20332;-77
2023/11/18 01:14:54;;;;;;;9.70;6.85;;;6.10;1.00;;;;;;5087869;28;20394;-72
2023/11/18 01:17:22;;;;;;;7.43;6.53;;;6.10;1.00;;;;;;5088128;28;20264;-71
2023/11/18 01:19:49;;;;;;;6.68;5.97;;;6.10;1.00;;;;;;5082044;27;20296;-73
2023/11/18 01:22:18;;;;;;;7.20;6.50;;;6.10;1.00;;;;;;5066356;28;20333;-73
2023/11/18 01:24:45;;;;;;;9.00;6.25;;;6.20;1.00;;;;;;5082557;28;20299;-70
2023/11/18 01:27:12;;;;;;;7.30;6.55;;;6.20;1.00;;;;;;5081923;28;20322;-71
2023/11/18 01:29:43;;;;;;;9.05;7.35;;;6.10;1.00;;;;;;5065548;28;20284;-71
2023/11/18 01:32:11;;;;;;;7.38;6.50;;;6.10;1.00;;;;;;5065381;28;20269;-70
2023/11/18 01:34:38;;;;;;;8.05;6.60;;;6.10;1.00;;;;;;5083862;27;20232;-72
2023/11/18 01:37:07;;;;;;;7.30;6.57;;;6.10;1.00;;;;;;5088634;28;21093;-71
2023/11/18 01:39:35;;;;;;;6.88;6.18;;;6.10;1.00;;;;;;5068023;28;20275;-70
2023/11/18 01:42:02;;;;;;;7.47;5.90;;;6.20;1.00;;;;;;5073395;28;20270;-72
2023/11/18 01:44:29;;;;;;;7.05;6.35;;;6.20;1.00;;;;;;5070668;28;20229;-71
2023/11/18 01:46:57;;;;;;;6.05;5.50;;;6.10;1.00;;;;;;5072642;27;20330;-71
2023/11/18 01:49:24;;;;;;;7.75;6.95;;;6.20;1.00;;;;;;5064445;28;20721;-72
2023/11/18 01:51:52;;;;;;;7.55;6.75;;;6.10;1.00;;;;;;5067027;28;20264;-71
2023/11/18 01:54:19;;;;;;;7.35;6.07;;;6.10;1.00;;;;;;5080676;28;20242;-70
2023/11/18 01:56:49;;;;;;;6.95;6.35;;;6.10;1.00;;;;;;5060580;28;20245;-70
2023/11/18 01:59:18;;;;;;;6.30;5.70;;;6.10;1.00;;;;;;5062473;28;20411;-70
2023/11/18 02:01:49;;;;;;;6.53;5.75;;;6.10;1.00;;;;;;5069090;27;20237;-72
2023/11/18 02:04:19;;;;;;;7.03;5.78;;;6.20;1.00;;;;;;5072658;28;20312;-71
2023/11/18 02:06:47;;;;;;;6.97;5.75;;;6.20;1.00;;;;;;5066896;28;20791;-71
2023/11/18 02:09:17;;;;;;;6.45;5.75;;;6.20;1.00;;;;;;5065416;28;20309;-73
2023/11/18 02:11:53;;;;;;;6.10;5.50;;;6.30;1.00;;;;;;5066712;28;20241;-71
2023/11/18 02:14:23;;;;;;;5.70;5.20;;;6.30;1.00;;;;;;5065348;28;20244;-75
2023/11/18 02:16:54;;;;;;;6.28;5.70;;;6.30;1.00;;;;;;5076512;28;20758;-70
2023/11/18 02:19:24;;;;;;;6.80;6.13;;;6.30;1.00;;;;;;5086705;28;20237;-69
2023/11/18 02:21:56;;;;;;;5.65;5.15;;;6.20;1.00;;;;;;5088707;28;20232;-70
2023/11/18 02:24:29;;;;;;;5.53;5.03;;;6.20;1.00;;;;;;5088170;28;20285;-70
2023/11/18 02:26:58;;;;;;;6.40;5.80;;;6.20;1.00;;;;;;5086344;28;20317;-72
2023/11/18 02:29:26;;;;;;;6.93;6.15;;;6.20;1.00;;;;;;5067941;28;20233;-70
2023/11/18 02:31:57;;;;;;;7.32;5.30;;;6.20;1.00;;;;;;5066691;28;20329;-70
2023/11/18 02:34:31;;;;;;;6.93;6.07;;;6.20;1.00;;;;;;5075884;28;20310;-71
2023/11/18 02:37:00;;;;;;;7.72;6.22;;;6.20;1.00;;;;;;5092435;28;20716;-71
2023/11/18 02:39:33;;;;;;;6.50;5.75;;;6.20;1.00;;;;;;5076139;27;21847;-69
2023/11/18 02:42:03;;;;;;;7.60;6.80;;;6.20;1.00;;;;;;5070254;28;20328;-70
2023/11/18 02:44:33;;;;;;;7.20;6.00;;;6.20;1.00;;;;;;5068425;28;20296;-70
2023/11/18 02:47:00;;;;;;;7.25;6.00;;;6.20;1.00;;;;;;5080007;28;20550;-72
2023/11/18 02:49:28;;;;;;;6.45;5.85;;;6.20;1.00;;;;;;5082818;28;20253;-72
2023/11/18 02:51:55;;;;;;;6.40;5.80;;;6.20;1.00;;;;;;5079728;28;20245;-70
2023/11/18 02:54:23;;;;;;;7.10;6.45;;;6.20;1.00;;;;;;5072259;28;20325;-71
2023/11/18 02:56:50;;;;;;;7.88;6.20;;;6.10;1.00;;;;;;5088012;28;21113;-73
2023/11/18 02:59:18;;;;;;;7.78;6.32;;;6.10;1.00;;;;;;5090670;28;20247;-71
2023/11/18 03:01:45;;;;;;;6.80;6.13;;;6.10;1.00;;;;;;5085725;28;22691;-73
2023/11/18 03:04:14;;;;;;;9.90;6.20;;;6.10;1.00;;;;;;5083549;27;21429;-72
2023/11/18 03:06:41;;;;;;;7.82;6.80;;;6.10;1.00;;;;;;5084856;28;20692;-71
2023/11/18 03:09:10;;;;;;;7.93;7.15;;;6.20;1.00;;;;;;5070467;28;20971;-72
2023/11/18 03:11:37;;;;;;;8.00;6.75;;;6.20;1.00;;;;;;5072683;28;21013;-72
2023/11/18 03:14:09;;;;;;;8.80;6.75;;;6.30;1.00;;;;;;5073669;28;20272;-71
2023/11/18 03:16:38;;;;;;;8.45;7.65;;;6.30;1.00;;;;;;5089217;28;20250;-71
2023/11/18 03:19:05;;;;;;;7.60;6.90;;;6.30;1.00;;;;;;5083981;28;20705;-72
2023/11/18 03:21:32;;;;;;;7.82;6.78;;;6.30;1.00;;;;;;5074793;28;20239;-73
2023/11/18 03:23:59;;;;;;;8.07;6.93;;;6.30;1.00;;;;;;5079966;28;20242;-72
2023/11/18 03:26:26;;;;;;;6.45;5.93;;;6.30;1.00;;;;;;5072062;28;20241;-72
2023/11/18 03:28:53;;;;;;;6.95;6.10;;;6.40;1.00;;;;;;5069610;28;20329;-72
2023/11/18 03:31:20;;;;;;;7.63;6.82;;;6.40;1.00;;;;;;5073716;28;20255;-72
2023/11/18 03:33:49;;;;;;;8.18;6.38;;;6.40;1.00;;;;;;5078074;28;20285;-70
2023/11/18 03:36:17;;;;;;;6.97;6.20;;;6.40;1.00;;;;;;5068224;28;20278;-71
2023/11/18 03:38:44;;;;;;;8.77;6.70;;;6.30;1.00;;;;;;5076431;28;20611;-70
2023/11/18 03:41:12;;;;;;;8.30;6.85;;;6.30;1.00;;;;;;5073396;28;20232;-71
2023/11/18 03:43:39;;;;;;;6.93;6.20;;;6.20;1.00;;;;;;5078189;28;20239;-72
2023/11/18 03:46:07;;;;;;;7.28;5.82;;;6.20;1.00;;;;;;5076609;28;20288;-71
2023/11/18 03:48:34;;;;;;;7.05;6.35;;;6.20;1.00;;;;;;5084833;28;20265;-70
2023/11/18 03:51:04;;;;;;;9.00;6.82;;;6.20;1.00;;;;;;5075505;28;20804;-70
2023/11/18 03:53:33;;;;;;;7.97;6.00;;;6.20;1.00;;;;;;5080256;27;20241;-70
2023/11/18 03:56:00;;;;;;;8.52;5.95;;;6.20;1.00;;;;;;5076146;28;20237;-71
2023/11/18 03:58:27;;;;;;;6.43;5.75;;;6.20;1.00;;;;;;5069923;28;20303;-70
2023/11/18 04:00:54;;;;;;;7.20;6.30;;;6.20;1.00;;;;;;5069447;28;20720;-74
2023/11/18 04:03:21;;;;;;;7.18;5.80;;;6.20;1.00;;;;;;5084304;28;20325;-70
2023/11/18 04:05:48;;;;;;;7.65;5.97;;;6.20;1.00;;;;;;5084618;28;20274;-73
2023/11/18 04:08:17;;;;;;;6.63;5.93;;;6.30;1.00;;;;;;5070920;28;20242;-71
2023/11/18 04:10:44;;;;;;;6.80;5.67;;;6.30;1.00;;;;;;5076106;27;20251;-70
2023/11/18 04:13:11;;;;;;;7.57;5.95;;;6.30;1.00;;;;;;5064177;28;20465;-71
2023/11/18 04:15:38;;;;;;;6.60;5.88;;;6.20;1.00;;;;;;5064880;28;20245;-71
2023/11/18 04:18:06;;;;;;;6.90;6.20;;;6.20;1.00;;;;;;5081347;28;20388;-72
2023/11/18 04:20:33;;;;;;;7.20;6.50;;;6.20;1.00;;;;;;5067162;28;21843;-70
2023/11/18 04:23:00;;;;;;;8.05;6.45;;;6.20;1.00;;;;;;5071418;28;20328;-72
2023/11/18 04:25:28;;;;;;;6.65;5.95;;;6.20;1.00;;;;;;5083415;28;20317;-71
2023/11/18 04:27:55;;;;;;;10.13;6.88;;;6.30;1.00;;;;;;5078391;28;20265;-73
2023/11/18 04:30:22;;;;;;;9.05;6.18;;;6.30;1.00;;;;;;5071524;28;20265;-73
2023/11/18 04:32:51;;;;;;;7.55;6.05;;;6.40;1.00;;;;;;5068870;28;20265;-72
2023/11/18 04:35:19;;;;;;;6.97;6.10;;;6.40;1.00;;;;;;5090303;28;21144;-71
2023/11/18 04:37:45;;;;;;;5.85;5.25;;;6.40;1.00;;;;;;5067792;28;20489;-71
2023/11/18 04:40:13;;;;;;;5.80;5.20;;;6.40;1.00;;;;;;5065776;28;20242;-70
2023/11/18 04:42:42;;;;;;;7.25;5.35;;;6.30;1.00;;;;;;5066143;28;20314;-71
2023/11/18 04:45:10;;;;;;;6.57;5.40;;;6.30;1.00;;;;;;5068696;28;20282;-70
2023/11/18 04:47:38;;;;;;;8.93;6.03;;;6.30;1.00;;;;;;5081941;28;20357;-71
2023/11/18 04:50:09;;;;;;;7.07;5.43;;;6.20;1.00;;;;;;5067157;28;20232;-71
2023/11/18 04:52:36;;;;;;;8.30;5.18;;;6.20;1.00;;;;;;5070521;28;20265;-70
2023/11/18 04:55:05;;;;;;;9.80;6.53;;;6.20;1.00;;;;;;5063660;28;20248;-73
2023/11/18 04:57:32;;;;;;;9.50;6.25;;;6.20;1.00;;;;;;5076768;28;20932;-75
2023/11/18 05:00:09;;;;;;;7.88;5.70;;;6.10;1.00;;;;;;5078001;28;20335;-71
2023/11/18 05:02:36;;;;;;;6.63;5.88;;;6.10;1.00;;;;;;5070843;28;20696;-75
2023/11/18 05:05:05;;;;;;;6.25;5.65;;;6.10;1.00;;;;;;5082951;28;20235;-71
2023/11/18 05:07:32;;;;;;;7.65;6.15;;;6.10;1.00;;;;;;5079328;28;20245;-69
2023/11/18 05:09:59;;;;;;;7.00;5.88;;;6.10;1.00;;;;;;5068618;28;20240;-70
2023/11/18 05:12:26;;;;;;;6.78;6.07;;;6.10;1.00;;;;;;5067626;28;21057;-70
2023/11/18 05:14:54;;;;;;;8.90;7.28;;;6.20;1.00;;;;;;5064779;28;21107;-70
2023/11/18 05:17:23;;;;;;;8.23;7.43;;;6.20;1.00;;;;;;5075422;28;20329;-70
2023/11/18 05:19:50;;;;;;;8.15;6.82;;;6.20;1.00;;;;;;5067049;28;20249;-71
2023/11/18 05:22:16;;;;;;;11.73;9.27;;;6.20;1.00;;;;;;5084374;28;20242;-70
2023/11/18 05:24:45;;;;;;;8.70;6.32;;;6.20;1.00;;;;;;5072139;28;20473;-69
2023/11/18 05:27:12;;;;;;;9.40;6.68;;;6.30;1.00;;;;;;5065050;28;20243;-69
2023/11/18 05:29:41;;;;;;;9.07;7.10;;;6.30;1.00;;;;;;5070393;28;20334;-69
2023/11/18 05:32:08;;;;;;;7.47;6.10;;;6.30;1.00;;;;;;5078739;28;20460;-69
2023/11/18 05:34:37;;;;;;;8.50;6.80;;;6.30;1.00;;;;;;5069752;28;20489;-69
2023/11/18 05:37:04;;;;;;;12.70;7.05;;;6.30;1.00;;;;;;5072307;28;20461;-69
2023/11/18 05:39:31;;;;;;;12.70;6.85;;;6.30;1.00;;;;;;5088316;28;20247;-69
2023/11/18 05:41:58;;;;;;;7.67;6.83;;;6.30;1.00;;;;;;5086347;28;20299;-69
2023/11/18 05:44:30;;;;;;;7.97;6.88;;;6.20;1.00;;;;;;5073785;28;20484;-70
2023/11/18 05:46:57;;;;;;;6.18;5.57;;;6.20;1.00;;;;;;5073322;28;20770;-70
2023/11/18 05:49:25;;;;;;;9.32;6.18;;;6.10;1.00;;;;;;5067317;28;20240;-70
2023/11/18 05:51:53;;;;;;;6.88;6.00;;;6.20;1.00;;;;;;5066532;28;20233;-70
2023/11/18 05:54:20;;;;;;;7.30;6.60;;;6.20;1.00;;;;;;5070397;28;20234;-70
2023/11/18 05:56:47;;;;;;;7.03;6.32;;;6.20;1.00;;;;;;5085625;28;20488;-70
2023/11/18 05:59:14;;;;;;;7.35;6.65;;;6.20;1.00;;;;;;5074596;28;20324;-70
2023/11/18 06:01:42;;;;;;;7.47;6.70;;;6.20;1.00;;;;;;5062178;28;20263;-71
2023/11/18 06:04:09;;;;;;;9.40;8.50;;;6.10;1.00;;;;;;5064415;28;20303;-72
2023/11/18 06:06:37;;;;;;;8.48;7.18;;;6.10;1.00;;;;;;5073823;28;20247;-68
2023/11/18 06:09:09;;;;;;;8.02;7.32;;;6.10;1.00;;;;;;5063033;28;20995;-72
2023/11/18 06:11:37;;;;;;;9.73;6.70;;;6.00;1.00;;;;;;5065792;28;20239;-70
2023/11/18 06:14:04;;;;;;;7.70;6.15;;;5.90;1.00;;;;;;5085412;28;20719;-69
2023/11/18 06:16:30;;;;;;;7.57;6.78;;;5.90;1.00;;;;;;5070260;28;20272;-68
2023/11/18 06:18:58;;;;;;;8.35;6.72;;;5.80;1.00;;;;;;5069809;28;20332;-69
2023/11/18 06:21:29;;;;;;;7.35;6.30;;;5.70;1.00;;;;;;5078941;28;20328;-70
2023/11/18 06:23:57;;;;;;;8.48;6.82;;;5.70;1.00;;;;;;5064981;28;20242;-70
2023/11/18 06:26:26;;;;;;;8.52;7.15;;;5.60;1.00;;;;;;5065561;28;20282;-70
2023/11/18 06:28:54;;;;;;;10.80;9.10;;;5.60;1.00;;;;;;5073900;27;20298;-69
2023/11/18 06:31:23;;;;;;;10.35;7.53;;;5.60;1.00;;;;;;5073635;27;20318;-70
2023/11/18 06:33:51;;;;;;;7.82;6.95;;;5.60;1.00;;;;;;5062015;28;20261;-69
2023/11/18 06:36:19;;;;;;;10.57;7.68;;;5.50;1.00;;;;;;5069772;28;20235;-71
2023/11/18 06:38:46;;;;;;;10.10;8.48;;;5.50;1.00;;;;;;5078486;28;20274;-69
2023/11/18 06:41:15;;;;;;;9.95;7.95;;;5.50;1.00;;;;;;5067464;28;20329;-73
2023/11/18 06:43:51;;;;;;;11.20;7.50;;;5.50;1.00;;;;;;5080461;28;20239;-72
2023/11/18 06:46:21;;;;;;;9.93;7.57;;;5.50;1.00;;;;;;5064269;28;20233;-72
2023/11/18 06:48:49;;;;;;;11.30;8.07;;;5.40;1.00;;;;;;5065541;28;20251;-69
2023/11/18 06:51:16;;;;;;;10.05;9.00;;;5.40;1.00;;;;;;5066969;28;20956;-70
2023/11/18 06:53:44;;;;;;;8.82;7.35;;;5.50;1.00;;;;;;5067473;27;20247;-71
2023/11/18 06:56:11;;;;;;;10.68;8.23;;;5.50;1.00;;;;;;5082277;28;20248;-70
2023/11/18 06:58:39;;;;;;;10.10;7.70;;;5.50;1.00;;;;;;5076402;28;20267;-70
2023/11/18 07:01:08;;;;;;;22.90;15.13;;;5.60;1.00;;;;;;5074881;28;20288;-71
2023/11/18 07:03:35;;;;;;;9.38;7.45;;;5.60;1.00;;;;;;5086330;28;20246;-69
2023/11/18 07:06:02;;;;;;;12.57;7.35;;;5.70;1.00;;;;;;5079787;28;20260;-70
2023/11/18 07:08:32;;;;;;;10.77;7.85;;;5.70;1.00;;;;;;5067800;28;20296;-70
2023/11/18 07:11:00;;;;;;;9.77;8.77;;;5.80;1.00;;;;;;5084211;28;20242;-71
2023/11/18 07:13:28;;;;;;;11.60;8.77;;;5.80;1.00;;;;;;5070356;28;20237;-71
2023/11/18 07:15:56;;;;;;;8.95;7.53;;;5.90;1.00;;;;;;5083108;28;20244;-71
2023/11/18 07:18:24;;;;;;;10.40;7.70;;;6.00;1.00;;;;;;5073212;28;20319;-71
2023/11/18 07:20:52;;;;;;;10.25;7.22;;;6.00;1.00;;;;;;5067669;28;20257;-71
2023/11/18 07:23:19;;;;;;;10.32;8.68;;;6.10;1.00;;;;;;5072649;28;20308;-73
2023/11/18 07:25:46;;;;;;;9.63;8.05;;;6.20;1.00;;;;;;5076583;28;20328;-72
2023/11/18 07:28:16;;;;;;;9.93;7.72;;;6.20;1.00;;;;;;5078935;28;20240;-70
2023/11/18 07:30:47;;;;;;;9.70;8.10;;;6.20;1.00;;;;;;5077601;28;20244;-70
2023/11/18 07:33:14;;;;;;;13.65;8.52;;;6.10;1.00;;;;;;5084612;28;20293;-70
2023/11/18 07:35:42;;;;;;;9.30;8.00;;;6.20;1.00;;;;;;5076041;27;20249;-70
2023/11/18 07:38:10;;;;;;;10.07;8.25;;;6.20;1.00;;;;;;5074724;28;20329;-69
2023/11/18 07:40:42;;;;;;;10.35;8.23;;;6.20;1.00;;;;;;5067497;28;20233;-71
2023/11/18 07:43:09;;;;;;;11.43;8.30;;;6.30;1.00;;;;;;5073333;28;20878;-70
2023/11/18 07:45:37;;;;;;;11.15;8.85;;;6.40;1.00;;;;;;5073106;28;20715;-71
2023/11/18 07:48:06;;;;;;;9.07;7.95;;;6.40;1.00;;;;;;5066990;28;20796;-73
2023/11/18 07:50:34;;;;;;;11.18;7.88;;;6.50;1.00;;;;;;5078397;28;20707;-69
2023/11/18 07:53:03;;;;;;;10.48;8.38;;;6.50;1.00;;;;;;5079155;28;20616;-71
2023/11/18 07:55:30;;;;;;;8.30;7.40;;;6.40;1.00;;;;;;5076123;28;20296;-70
2023/11/18 07:57:57;;;;;;;9.85;6.88;;;6.30;1.00;;;;;;5088135;28;20343;-70
2023/11/18 08:00:24;;;;;;;9.90;8.68;;;6.40;1.00;;;;;;5083345;28;20241;-70
2023/11/18 08:02:54;;;;;;;14.82;10.25;;;6.40;1.00;;;;;;5069248;28;20330;-72
2023/11/18 08:05:22;;;;;;;11.50;9.65;;;6.30;1.00;;;;;;5067707;28;20342;-71
2023/11/18 08:07:49;;;;;;;13.95;8.65;;;6.30;1.00;;;;;;5071234;27;20254;-72
2023/11/18 08:10:19;;;;;;;13.23;10.10;;;6.30;1.00;;;;;;5087196;27;20725;-71
2023/11/18 08:12:47;;;;;;;12.90;8.30;;;6.40;1.00;;;;;;5071173;27;21048;-70
2023/11/18 08:15:14;;;;;;;10.18;8.20;;;6.40;1.00;;;;;;5068741;28;20304;-74
2023/11/18 08:17:41;;;;;;;11.10;8.57;;;6.50;1.00;;;;;;5080463;28;20244;-73
2023/11/18 08:20:13;;;;;;;11.18;9.18;;;6.60;1.00;;;;;;5070584;28;21376;-73
2023/11/18 08:22:41;;;;;;;10.52;7.50;;;6.70;1.00;;;;;;5071693;28;20687;-73
2023/11/18 08:25:09;;;;;;;9.98;7.47;;;6.70;1.00;;;;;;5078678;28;20751;-72
2023/11/18 08:27:37;;;;;;;10.52;7.85;;;6.60;1.00;;;;;;5085697;28;20234;-73
2023/11/18 08:30:10;;;;;;;11.52;8.07;;;6.60;1.00;;;;;;5070961;28;20238;-74
2023/11/18 08:32:37;;;;;;;13.57;8.95;;;6.60;1.00;;;;;;5087112;28;20319;-73
2023/11/18 08:35:06;;;;;;;9.88;8.65;;;6.50;1.00;;;;;;5090260;28;20241;-74
2023/11/18 08:37:33;;;;;;;6.93;5.97;;;6.60;1.00;;;;;;5074733;28;20760;-74
2023/11/18 08:40:00;;;;;;;7.80;6.77;;;6.60;1.00;;;;;;5082964;28;20242;-75
2023/11/18 08:42:29;;;;;;;8.45;6.82;;;6.60;1.00;;;;;;5081604;28;20468;-73
2023/11/18 08:44:58;;;;;;;7.57;6.88;;;6.50;1.00;;;;;;5065772;28;20335;-73
2023/11/18 08:47:26;;;;;;;8.13;7.10;;;6.60;1.00;;;;;;5067761;28;20237;-75
2023/11/18 08:49:53;;;;;;;7.77;6.40;;;6.60;1.00;;;;;;5073954;28;20246;-75
2023/11/18 08:52:20;;;;;;;7.78;6.55;;;6.70;1.00;;;;;;5089017;28;20489;-75
2023/11/18 08:57:34;;;;;;;7.18;5.30;;;6.90;1.00;;;;;;5078394;28;20227;-74
2023/11/18 09:00:17;;;;;;;8.32;6.57;;;6.90;1.00;;;;;;5075208;28;20351;-75
2023/11/18 09:02:45;;;;;;;8.55;7.00;;;7.00;1.00;;;;;;5076292;28;20273;-75
2023/11/18 09:05:12;;;;;;;10.00;7.05;;;7.10;1.00;;;;;;5064244;28;20236;-76
2023/11/18 09:07:39;;;;;;;7.57;5.90;;;7.20;1.00;;;;;;5071757;28;20234;-76
2023/11/18 09:10:12;;;;;;;9.20;8.17;;;7.30;1.00;;;;;;5070976;28;20454;-76
2023/11/18 09:12:41;;;;;;;9.05;6.40;;;7.40;1.00;;;;;;5075661;28;21220;-74
2023/11/18 09:15:13;;;;;;;7.05;6.28;;;7.50;1.00;;;;;;5073872;28;20737;-75
2023/11/18 09:17:44;;;;;;;6.53;5.80;;;7.60;1.00;;;;;;5081333;27;20225;-74
2023/11/18 09:20:12;;;;;;;8.13;6.00;;;7.60;1.00;;;;;;5067117;28;22885;-75
2023/11/18 09:22:39;;;;;;;7.03;6.40;;;7.60;1.00;;;;;;5077527;28;20470;-73
2023/11/18 09:25:09;;;;;;;7.67;6.90;;;7.50;1.00;;;;;;5064031;28;20446;-74
2023/11/18 09:27:36;;;;;;;8.83;6.80;;;7.60;1.00;;;;;;5067955;28;20582;-75
2023/11/18 09:30:13;;;;;;;10.70;7.60;;;7.60;1.00;;;;;;5064267;28;20502;-74
2023/11/18 09:32:42;;;;;;;8.23;7.00;;;7.60;1.00;;;;;;5072910;28;20664;-76
2023/11/18 09:35:12;;;;;;;7.80;7.00;;;7.60;1.00;;;;;;5072371;28;20441;-76
2023/11/18 09:37:40;;;;;;;9.75;6.65;;;7.60;1.00;;;;;;5090439;27;20475;-73
2023/11/18 09:40:12;;;;;;;9.33;7.47;;;7.60;1.00;;;;;;5091687;28;20241;-75
2023/11/18 09:42:39;;;;;;;8.43;6.70;;;7.60;1.00;;;;;;5088654;27;20995;-75
2023/11/18 09:45:13;;;;;;;7.88;7.07;;;7.60;1.00;;;;;;5093234;28;20516;-76
2023/11/18 09:47:47;;;;;;;9.10;8.10;;;7.60;1.00;;;;;;5078059;28;20702;-76
2023/11/18 09:50:20;;;;;;;12.77;8.10;;;7.60;1.00;;;;;;5067803;28;20249;-76
2023/11/18 09:52:52;;;;;;;9.80;7.43;;;7.80;1.00;;;;;;5078515;28;20482;-75
2023/11/18 09:55:31;;;;;;;7.70;6.40;;;7.90;1.00;;;;;;5091217;28;20498;-74
2023/11/18 09:58:08;;;;;;;7.33;6.50;;;8.00;1.00;;;;;;5084173;28;20522;-74
2023/11/18 10:00:41;;;;;;;7.93;6.70;;;8.10;1.00;;;;;;5065831;28;20519;-74
2023/11/18 10:03:15;;;;;;;7.57;6.67;;;8.20;1.00;;;;;;5075707;28;20542;-76
2023/11/18 10:05:43;;;;;;;9.07;7.20;;;8.20;1.00;;;;;;5065551;28;20466;-75
2023/11/18 10:08:10;;;;;;;9.13;7.57;;;8.10;1.00;;;;;;5071700;28;21245;-75
2023/11/18 10:10:37;;;;;;;10.93;8.30;;;8.00;1.00;;;;;;5081648;28;20467;-76
2023/11/18 10:13:08;;;;;;;9.07;7.87;;;8.00;1.00;;;;;;5075641;28;20468;-76
2023/11/18 10:15:36;;;;;;;7.77;6.07;;;7.90;1.00;;;;;;5069577;28;20458;-77
2023/11/18 10:18:07;;;;;;;8.07;6.47;;;8.00;1.00;;;;;;5067253;28;20436;-75
2023/11/18 10:20:54;;;;;;;8.80;7.23;;;8.00;1.00;;;;;;5064866;28;20474;-75
2023/11/18 10:23:24;;;;;;;7.10;6.27;;;7.90;1.00;;;;;;5083601;27;20454;-76
2023/11/18 10:25:53;;;;;;;6.27;5.63;;;8.00;1.00;;;;;;5073203;28;20428;-74
2023/11/18 10:28:24;;;;;;;7.57;6.80;;;8.10;1.00;;;;;;5065566;28;20582;-75
2023/11/18 10:30:51;;;;;;;8.40;6.90;;;8.20;1.00;;;;;;5066313;28;20551;-76
2023/11/18 10:33:19;;;;;;;9.00;7.00;;;8.40;1.00;;;;;;5077083;28;20464;-76
2023/11/18 10:35:55;;;;;;;9.30;6.70;;;8.50;1.00;;;;;;5068690;28;20475;-70
2023/11/18 10:38:25;;;;;;;6.60;5.67;;;8.70;1.00;;;;;;5086654;28;20563;-71
2023/11/18 10:40:55;;;;;;;14.80;13.30;;;8.80;1.00;;;;;;5087986;28;20993;-73
2023/11/18 10:43:24;;;;;;;9.53;6.03;;;8.90;1.00;;;;;;5073827;28;21109;-71
2023/11/18 10:45:52;;;;;;;7.03;5.50;;;8.80;1.00;;;;;;5066492;28;21175;-72
2023/11/18 10:48:20;;;;;;;6.53;5.73;;;8.70;1.00;;;;;;5063964;28;20447;-71
2023/11/18 10:50:49;;;;;;;6.73;6.03;;;8.80;1.00;;;;;;5065323;28;20456;-71
2023/11/18 10:53:21;;;;;;;8.80;7.27;;;9.00;1.00;;;;;;5083779;27;20467;-71
2023/11/18 10:55:50;;;;;;;8.40;6.60;;;9.10;1.00;;;;;;5084772;28;20478;-71
2023/11/18 10:58:17;;;;;;;8.53;6.97;;;9.00;1.00;;;;;;5076550;28;20572;-72
2023/11/18 11:00:53;;;;;;;7.33;6.63;;;8.90;1.00;;;;;;5069003;28;20475;-71
2023/11/18 11:03:23;;;;;;;7.60;6.57;;;8.90;1.00;;;;;;5082966;28;20547;-72
2023/11/18 11:05:50;;;;;;;7.80;6.87;;;8.80;1.00;;;;;;5080113;28;20452;-71
2023/11/18 11:08:20;;;;;;;7.53;6.60;;;8.90;1.00;;;;;;5079644;28;20519;-73
2023/11/18 11:10:52;;;;;;;6.23;5.50;;;8.70;1.00;;;;;;5076683;28;20467;-71
2023/11/18 11:13:20;;;;;;;8.50;7.00;;;8.70;1.00;;;;;;5077720;28;20518;-72
2023/11/18 11:15:52;;;;;;;6.80;6.17;;;8.70;1.00;;;;;;5068950;27;20471;-71
2023/11/18 11:18:27;;;;;;;8.00;7.30;;;8.70;1.00;;;;;;5076220;28;20485;-77
2023/11/18 11:21:03;;;;;;;7.93;7.13;;;8.50;1.00;;;;;;5068798;28;20500;-72
2023/11/18 11:23:44;;;;;;;19.80;16.17;;;8.40;1.00;;;;;;5055162;28;20547;-72
2023/11/18 11:26:22;;;;;;;9.87;8.80;;;8.40;1.00;;;;;;5074291;28;20481;-74
2023/11/18 11:28:58;;;;;;;8.90;8.00;;;8.30;1.00;;;;;;5089116;28;20496;-71
2023/11/18 11:31:33;;;;;;;9.13;8.23;;;8.40;1.00;;;;;;5079698;27;20454;-71
2023/11/18 11:34:06;;;;;;;10.03;7.50;;;8.40;1.00;;;;;;5070046;28;20502;-71
2023/11/18 11:36:41;;;;;;;11.27;9.93;;;8.50;1.00;;;;;;5066555;28;20459;-70
2023/11/18 11:39:14;;;;;;;11.03;9.70;;;8.60;1.00;;;;;;5072013;28;20451;-72
2023/11/18 11:41:46;;;;;;;9.33;7.83;;;8.50;1.00;;;;;;5068531;28;20463;-71
2023/11/18 11:44:16;;;;;;;9.47;8.10;;;8.40;1.00;;;;;;5078876;28;20478;-71
2023/11/18 11:46:43;;;;;;;8.40;7.27;;;8.20;1.00;;;;;;5071026;28;20459;-70
2023/11/18 11:49:20;;;;;;;11.40;7.30;;;8.20;1.00;;;;;;5092365;28;22374;-72
2023/11/18 11:51:49;;;;;;;8.83;7.30;;;8.20;1.00;;;;;;5082513;28;20500;-72
2023/11/18 11:54:23;;;;;;;8.23;6.60;;;8.20;1.00;;;;;;5083850;28;20462;-72
2023/11/18 11:56:59;;;;;;;8.03;7.10;;;8.30;1.00;;;;;;5086535;27;20545;-72
2023/11/18 11:59:41;;;;;;;10.00;7.40;;;8.40;1.00;;;;;;5076182;28;20463;-73
2023/11/18 12:02:15;;;;;;;9.00;7.90;;;8.60;1.00;;;;;;5079662;28;20773;-72
2023/11/18 12:04:45;;;;;;;9.10;7.37;;;8.70;1.00;;;;;;5064475;28;20547;-75
2023/11/18 12:07:15;;;;;;;8.23;6.53;;;8.70;1.00;;;;;;5074370;28;20493;-73
2023/11/18 12:09:44;;;;;;;8.30;6.30;;;8.80;1.00;;;;;;5068457;28;20538;-72
2023/11/18 12:12:19;;;;;;;7.60;6.67;;;8.90;1.00;;;;;;5066299;28;20457;-71
2023/11/18 12:14:56;;;;;;;9.83;8.73;;;9.10;1.00;;;;;;5065782;28;20541;-74
2023/11/18 12:17:28;;;;;;;9.33;8.43;;;9.20;1.00;;;;;;5080172;28;20469;-72
2023/11/18 12:19:58;;;;;;;10.03;8.20;;;9.40;1.00;;;;;;5070276;28;21002;-71
2023/11/18 12:22:30;;;;;;;12.87;9.00;;;9.50;1.00;;;;;;5067619;28;20531;-74
2023/11/18 12:25:32;;;;;;;12.87;9.70;;;9.60;1.00;;;;;;5067734;28;20518;-72
2023/11/18 12:28:08;;;;;;;13.10;9.53;;;10.30;1.00;;;;;;5077471;28;20443;-73
2023/11/18 12:30:55;;;;;;;9.70;8.70;;;11.00;1.00;;;;;;5070801;28;21001;-72
2023/11/18 12:33:24;;;;;;;10.83;8.70;;;11.30;1.00;;;;;;5066235;28;20464;-74
2023/11/18 12:36:24;;;;;;;10.23;8.97;;;12.00;1.00;;;;;;5074092;28;20471;-75
2023/11/18 12:39:18;;;;;;;11.70;9.10;;;13.10;1.00;;;;;;5061918;28;21264;-73
2023/11/18 12:41:56;;;;;;;9.07;8.00;;;13.80;1.00;;;;;;5068417;28;20473;-73
2023/11/18 12:44:32;;;;;;;8.40;7.40;;;14.20;1.00;;;;;;5077448;28;20522;-73
2023/11/18 12:47:09;;;;;;;7.20;6.50;;;14.90;1.00;;;;;;5074836;28;20488;-72
2023/11/18 12:49:41;;;;;;;9.10;6.80;;;15.90;1.00;;;;;;5082368;28;20461;-73
2023/11/18 12:52:09;;;;;;;6.93;6.23;;;17.20;1.00;;;;;;5082631;28;20443;-74
2023/11/18 12:54:41;;;;;;;6.80;6.17;;;17.10;1.00;;;;;;5088752;28;21147;-75
2023/11/18 12:57:09;;;;;;;6.97;6.10;;;15.10;1.00;;;;;;5066475;28;20482;-76
2023/11/18 12:59:38;;;;;;;6.47;5.83;;;15.20;1.00;;;;;;5050455;28;20458;-77
2023/11/18 13:02:12;;;;;;;6.10;5.33;;;16.30;1.00;;;;;;5067564;28;20614;-76
2023/11/18 13:04:40;;;;;;;8.07;7.23;;;16.20;1.00;;;;;;5074901;28;20460;-75
2023/11/18 13:07:11;;;;;;;7.17;6.47;;;15.50;1.00;;;;;;5083368;28;20471;-77
2023/11/18 13:09:40;;;;;;;7.17;5.63;;;14.90;1.00;;;;;;5066988;28;21204;-76
2023/11/18 13:12:08;;;;;;;7.90;6.47;;;13.90;1.00;;;;;;5063560;28;20527;-75
2023/11/18 13:14:39;;;;;;;7.70;7.00;;;13.00;1.00;;;;;;5084693;28;20461;-76
2023/11/18 13:17:11;;;;;;;7.13;6.43;;;12.20;1.00;;;;;;5044532;28;20855;-77
2023/11/18 13:19:38;;;;;;;10.43;7.60;;;11.30;1.00;;;;;;5084258;27;21647;-77